createdAt,value
2023-05-17T00:00:47.725Z,46.68
2023-05-17T00:01:57.611Z,46.67
2023-05-17T00:04:23.632Z,46.73
2023-05-17T00:06:47.806Z,46.74
2023-05-17T00:07:56.675Z,46.79
2023-05-17T00:09:07.420Z,46.90
2023-05-17T00:10:17.929Z,46.91
2023-05-17T00:11:28.651Z,46.87
2023-05-17T00:12:37.824Z,46.95
2023-05-17T00:15:02.575Z,47.12
2023-05-17T00:16:12.327Z,47.01
2023-05-17T00:17:21.238Z,47.06
2023-05-17T00:18:32.069Z,47.08
2023-05-17T00:20:57.705Z,47.14
2023-05-17T00:23:23.834Z,47.06
2023-05-17T00:24:33.575Z,47.10
2023-05-17T00:27:00.471Z,47.27
2023-05-17T00:29:25.007Z,47.32
2023-05-17T00:30:34.295Z,47.35
2023-05-17T00:33:00.944Z,47.47
2023-05-17T00:34:10.831Z,47.52
2023-05-17T00:36:36.406Z,47.53
2023-05-17T00:39:03.862Z,47.55
2023-05-17T00:41:33.782Z,47.55
2023-05-17T00:42:43.517Z,47.51
2023-05-17T00:43:52.378Z,47.52
2023-05-17T00:46:35.999Z,47.58
2023-05-17T00:47:44.704Z,47.59
2023-05-17T00:48:55.319Z,47.58
2023-05-17T00:51:22.387Z,47.66
2023-05-17T00:53:49.633Z,47.64
2023-05-17T00:56:15.581Z,47.47
2023-05-17T00:57:24.413Z,47.40
2023-05-17T00:58:35.356Z,47.43
2023-05-17T00:59:47.795Z,47.39
2023-05-17T01:00:57.354Z,47.37
2023-05-17T01:03:33.871Z,47.46
2023-05-17T01:06:00.210Z,47.40
2023-05-17T01:08:26.376Z,47.31
2023-05-17T01:11:02.616Z,47.33
2023-05-17T01:13:36.929Z,47.19
2023-05-17T01:16:20.053Z,47.18
2023-05-17T01:17:42.265Z,47.15
2023-05-17T01:20:40.879Z,47.06
2023-05-17T01:25:23.068Z,46.96
2023-05-17T01:27:59.761Z,46.95
2023-05-17T01:30:26.677Z,47.01
2023-05-17T01:33:00.804Z,47.11
2023-05-17T01:35:26.597Z,46.92
2023-05-17T01:37:54.452Z,47.02
2023-05-17T01:40:21.752Z,46.94
2023-05-17T01:44:42.431Z,46.97
2023-05-17T01:47:26.379Z,47.04
2023-05-17T01:49:58.378Z,46.97
2023-05-17T01:52:44.167Z,47.07
2023-05-17T01:55:28.262Z,47.02
2023-05-17T01:58:03.385Z,47.09
2023-05-17T02:00:41.316Z,47.16
2023-05-17T02:03:15.971Z,47.17
2023-05-17T02:04:25.809Z,47.24
2023-05-17T02:06:50.458Z,47.36
2023-05-17T02:09:34.642Z,47.28
2023-05-17T02:10:44.676Z,47.32
2023-05-17T02:13:10.395Z,47.41
2023-05-17T02:14:22.460Z,47.39
2023-05-17T02:16:46.887Z,47.58
2023-05-17T02:19:12.575Z,47.61
2023-05-17T02:20:28.232Z,47.68
2023-05-17T02:21:37.275Z,47.64
2023-05-17T02:22:48.035Z,47.67
2023-05-17T02:23:58.178Z,47.73
2023-05-17T02:26:25.294Z,47.95
2023-05-17T02:28:51.725Z,47.99
2023-05-17T02:30:02.049Z,47.98
2023-05-17T02:32:25.993Z,48.10
2023-05-17T02:34:52.511Z,48.25
2023-05-17T02:36:01.428Z,48.15
2023-05-17T02:37:11.474Z,48.18
2023-05-17T02:39:36.735Z,48.18
2023-05-17T02:40:49.463Z,48.17
2023-05-17T02:41:58.170Z,48.28
2023-05-17T02:44:21.963Z,48.28
2023-05-17T02:45:32.504Z,48.29
2023-05-17T02:47:58.815Z,48.29
2023-05-17T02:50:24.606Z,48.31
2023-05-17T02:51:34.483Z,48.28
2023-05-17T02:54:00.113Z,48.35
2023-05-17T02:56:25.684Z,48.37
2023-05-17T02:58:51.036Z,48.27
2023-05-17T03:00:00.710Z,48.38
2023-05-17T03:02:28.678Z,48.42
2023-05-17T03:03:38.861Z,48.42
2023-05-17T03:06:06.621Z,48.47
2023-05-17T03:07:16.469Z,48.47
2023-05-17T03:09:43.383Z,48.42
2023-05-17T03:12:09.538Z,48.40
2023-05-17T03:14:33.758Z,48.39
2023-05-17T03:16:59.942Z,48.31
2023-05-17T03:19:25.009Z,48.57
2023-05-17T03:21:49.498Z,48.45
2023-05-17T03:24:14.514Z,48.56
2023-05-17T03:26:40.417Z,48.62
2023-05-17T03:27:50.983Z,48.55
2023-05-17T03:30:16.377Z,48.53
2023-05-17T03:31:27.952Z,48.45
2023-05-17T03:32:39.828Z,48.40
2023-05-17T03:35:05.652Z,48.41
2023-05-17T03:36:15.807Z,48.50
2023-05-17T03:38:41.335Z,48.48
2023-05-17T03:41:06.280Z,48.68
2023-05-17T03:43:31.638Z,48.73
2023-05-17T03:44:42.498Z,48.75
2023-05-17T03:47:06.832Z,49.02
2023-05-17T03:49:32.965Z,49.21
2023-05-17T03:51:57.550Z,49.42
2023-05-17T03:53:08.523Z,49.33
2023-05-17T03:54:19.694Z,49.33
2023-05-17T03:56:48.529Z,49.68
2023-05-17T03:57:58.698Z,49.66
2023-05-17T03:59:07.538Z,49.81
2023-05-17T04:01:35.883Z,49.86
2023-05-17T04:04:01.974Z,49.87
2023-05-17T04:06:29.900Z,49.94
2023-05-17T04:08:55.900Z,49.75
2023-05-17T04:11:24.322Z,49.94
2023-05-17T04:13:51.106Z,50.02
2023-05-17T04:16:16.285Z,50.08
2023-05-17T04:17:25.499Z,50.13
2023-05-17T04:19:53.992Z,50.17
2023-05-17T04:22:22.017Z,50.18
2023-05-17T04:24:52.172Z,50.01
2023-05-17T04:26:01.690Z,49.89
2023-05-17T04:27:12.573Z,49.93
2023-05-17T04:29:39.351Z,49.83
2023-05-17T04:30:49.026Z,49.71
2023-05-17T04:31:58.234Z,49.76
2023-05-17T04:34:26.637Z,49.72
2023-05-17T04:36:52.561Z,49.47
2023-05-17T04:38:02.949Z,49.46
2023-05-17T04:40:27.560Z,49.75
2023-05-17T04:41:38.253Z,49.40
2023-05-17T04:44:08.003Z,49.16
2023-05-17T04:46:34.087Z,49.12
2023-05-17T04:48:58.631Z,49.09
2023-05-17T04:51:24.932Z,49.04
2023-05-17T04:53:49.510Z,49.04
2023-05-17T04:56:14.952Z,48.97
2023-05-17T04:57:24.208Z,49.06
2023-05-17T05:00:18.925Z,48.94
2023-05-17T05:02:50.474Z,48.79
2023-05-17T05:05:16.087Z,48.65
2023-05-17T05:07:41.139Z,48.54
2023-05-17T05:10:07.521Z,48.56
2023-05-17T05:11:17.971Z,48.46
2023-05-17T05:13:43.458Z,48.18
2023-05-17T05:16:08.907Z,48.07
2023-05-17T05:18:33.622Z,47.80
2023-05-17T05:20:59.290Z,47.43
2023-05-17T05:22:11.547Z,47.40
2023-05-17T05:24:36.047Z,47.46
2023-05-17T05:25:46.205Z,47.27
2023-05-17T05:26:55.731Z,47.13
2023-05-17T05:28:06.301Z,46.78
2023-05-17T05:29:15.698Z,46.70
2023-05-17T05:30:26.135Z,46.78
2023-05-17T05:32:53.672Z,46.29
2023-05-17T05:35:18.673Z,46.19
2023-05-17T05:37:44.133Z,45.74
2023-05-17T05:40:12.009Z,45.50
2023-05-17T05:42:37.626Z,45.36
2023-05-17T05:45:02.388Z,45.30
2023-05-17T05:46:12.559Z,45.57
2023-05-17T05:48:40.186Z,45.37
2023-05-17T05:51:06.245Z,45.29
2023-05-17T05:52:16.781Z,44.75
2023-05-17T05:53:26.245Z,44.81
2023-05-17T05:55:51.960Z,44.35
2023-05-17T05:58:18.026Z,43.98
2023-05-17T06:00:43.858Z,43.61
2023-05-17T06:03:10.412Z,43.55
2023-05-17T06:05:34.681Z,42.98
2023-05-17T06:07:58.458Z,42.71
2023-05-17T06:09:07.934Z,42.93
2023-05-17T06:10:17.513Z,43.12
2023-05-17T06:13:52.096Z,43.04
2023-05-17T06:16:15.794Z,42.66
2023-05-17T06:17:24.566Z,42.85
2023-05-17T06:19:49.506Z,42.82
2023-05-17T06:22:15.522Z,42.41
2023-05-17T06:24:40.444Z,41.96
2023-05-17T06:27:09.264Z,41.67
2023-05-17T06:28:19.502Z,41.63
2023-05-17T06:30:44.492Z,41.29
2023-05-17T06:33:11.997Z,41.29
2023-05-17T06:35:54.243Z,41.19
2023-05-17T06:36:50.344Z,41.04
2023-05-17T06:38:06.401Z,41.10
2023-05-17T06:40:30.474Z,40.96
2023-05-17T06:42:54.186Z,40.62
2023-05-17T06:45:19.112Z,40.83
2023-05-17T06:47:44.446Z,40.94
2023-05-17T06:50:11.173Z,40.26
2023-05-17T06:52:35.928Z,39.95
2023-05-17T06:55:00.771Z,39.91
2023-05-17T06:56:11.273Z,39.62
2023-05-17T06:58:35.301Z,39.43
2023-05-17T07:00:59.110Z,38.57
2023-05-17T07:03:23.330Z,38.15
2023-05-17T07:04:32.799Z,37.92
2023-05-17T07:06:56.901Z,38.14
2023-05-17T07:09:21.440Z,38.52
2023-05-17T07:10:32.903Z,38.17
2023-05-17T07:13:01.087Z,37.58
2023-05-17T07:15:44.246Z,36.60
2023-05-17T07:18:10.426Z,36.18
2023-05-17T07:20:35.752Z,35.61
2023-05-17T07:21:45.904Z,35.47
2023-05-17T07:24:13.670Z,35.53
2023-05-17T07:26:38.050Z,34.48
2023-05-17T07:29:03.504Z,34.19
2023-05-17T07:31:30.643Z,34.32
2023-05-17T07:33:57.858Z,33.50
2023-05-17T07:36:22.194Z,33.11
2023-05-17T07:38:46.146Z,32.53
2023-05-17T07:41:14.096Z,32.35
2023-05-17T07:43:39.132Z,32.43
2023-05-17T07:46:05.241Z,32.34
2023-05-17T07:48:29.366Z,32.18
2023-05-17T07:50:55.340Z,32.18
2023-05-17T07:53:21.342Z,32.43
2023-05-17T07:55:49.615Z,32.67
2023-05-17T07:58:15.534Z,32.70
2023-05-17T08:00:41.514Z,32.48
2023-05-17T08:01:51.459Z,32.61
2023-05-17T08:04:16.680Z,32.31
2023-05-17T08:06:42.517Z,32.32
2023-05-17T08:09:08.162Z,32.56
2023-05-17T08:11:40.579Z,31.96
2023-05-17T08:12:49.005Z,31.93
2023-05-17T08:15:12.844Z,32.00
2023-05-17T08:16:24.585Z,31.51
2023-05-17T08:18:48.117Z,31.72
2023-05-17T08:19:57.340Z,32.01
2023-05-17T08:21:06.622Z,31.74
2023-05-17T08:22:16.885Z,31.73
2023-05-17T08:24:42.439Z,31.67
2023-05-17T08:27:07.174Z,32.05
2023-05-17T08:29:31.758Z,32.00
2023-05-17T08:30:42.416Z,31.70
2023-05-17T08:33:10.963Z,31.80
2023-05-17T08:40:29.798Z,32.01
2023-05-17T08:42:57.174Z,32.13
2023-05-17T08:44:07.237Z,32.08
2023-05-17T08:45:17.833Z,32.09
2023-05-17T08:47:44.181Z,32.67
2023-05-17T08:50:12.592Z,31.97
2023-05-17T08:52:38.689Z,30.96
2023-05-17T08:55:07.920Z,30.16
2023-05-17T08:57:39.450Z,29.71
2023-05-17T08:58:57.025Z,30.36
2023-05-17T09:00:15.097Z,30.73
2023-05-17T09:01:25.992Z,30.68
2023-05-17T09:02:36.200Z,31.00
2023-05-17T09:05:08.156Z,30.71
2023-05-17T09:07:39.375Z,30.67
2023-05-17T09:08:54.016Z,30.46
2023-05-17T09:11:29.633Z,30.06
2023-05-17T09:13:54.028Z,29.81
2023-05-17T09:15:15.083Z,29.64
2023-05-17T09:17:43.047Z,30.15
2023-05-17T09:20:12.315Z,29.45
2023-05-17T09:21:22.919Z,29.14
2023-05-17T09:24:01.787Z,29.15
2023-05-17T09:26:18.634Z,28.94
2023-05-17T09:27:30.515Z,29.09
2023-05-17T09:29:57.670Z,29.30
2023-05-17T09:32:27.684Z,29.14
2023-05-17T09:35:05.162Z,29.52
2023-05-17T09:37:38.850Z,29.62
2023-05-17T09:40:25.302Z,29.41
2023-05-17T09:43:00.954Z,29.39
2023-05-17T09:45:27.198Z,29.88
2023-05-17T09:47:55.344Z,30.11
2023-05-17T09:49:04.948Z,30.15
2023-05-17T09:51:47.150Z,30.37
2023-05-17T09:52:55.624Z,30.40
2023-05-17T09:54:06.673Z,30.41
2023-05-17T09:55:18.006Z,30.79
2023-05-17T09:57:46.716Z,30.71
2023-05-17T10:00:12.783Z,30.87
2023-05-17T10:02:42.780Z,30.93
2023-05-17T10:05:12.850Z,31.38
2023-05-17T10:07:40.898Z,31.88
2023-05-17T10:10:13.438Z,32.52
2023-05-17T10:12:52.264Z,32.51
2023-05-17T10:15:28.578Z,32.75
2023-05-17T10:17:55.866Z,32.67
2023-05-17T10:20:21.693Z,32.95
2023-05-17T10:22:49.319Z,32.88
2023-05-17T10:25:17.119Z,32.87
2023-05-17T10:27:43.061Z,33.18
2023-05-17T10:30:14.726Z,33.42
2023-05-17T10:32:41.441Z,33.44
2023-05-17T10:35:11.916Z,32.78
2023-05-17T10:37:39.892Z,32.67
2023-05-17T10:40:04.401Z,32.87
2023-05-17T10:42:34.173Z,33.28
2023-05-17T10:45:04.542Z,32.54
2023-05-17T10:47:34.376Z,32.98
2023-05-17T10:50:07.011Z,32.21
2023-05-17T10:52:33.399Z,32.66
2023-05-17T10:55:11.353Z,33.09
2023-05-17T11:00:06.861Z,32.37
2023-05-17T11:02:38.921Z,32.76
2023-05-17T11:05:04.819Z,32.92
2023-05-17T11:07:40.696Z,32.76
2023-05-17T11:10:27.170Z,32.30
2023-05-17T11:12:54.435Z,33.01
2023-05-17T11:14:06.434Z,32.83
2023-05-17T11:16:36.883Z,31.59
2023-05-17T11:19:10.665Z,31.72
2023-05-17T11:21:47.208Z,30.99
2023-05-17T11:24:26.970Z,31.60
2023-05-17T11:26:56.474Z,31.85
2023-05-17T11:29:42.638Z,31.34
2023-05-17T11:32:32.012Z,31.10
2023-05-17T11:33:46.134Z,30.84
2023-05-17T11:36:22.589Z,29.15
2023-05-17T11:37:31.950Z,28.74
2023-05-17T11:40:08.136Z,27.78
2023-05-17T11:42:37.738Z,28.52
2023-05-17T11:45:04.074Z,28.36
2023-05-17T11:47:40.135Z,27.67
2023-05-17T11:48:53.497Z,28.00
2023-05-17T11:51:20.287Z,28.18
2023-05-17T11:53:50.372Z,28.67
2023-05-17T11:55:01.574Z,28.74
2023-05-17T11:56:12.238Z,27.83
2023-05-17T11:58:43.043Z,26.99
2023-05-17T12:01:10.489Z,26.60
2023-05-17T12:02:31.378Z,27.22
2023-05-17T12:04:55.657Z,26.51
2023-05-17T12:07:26.066Z,26.67
2023-05-17T12:09:52.353Z,26.47
2023-05-17T12:11:02.276Z,26.16
2023-05-17T12:13:30.940Z,26.75
2023-05-17T12:16:21.420Z,26.65
2023-05-17T12:18:53.011Z,27.18
2023-05-17T12:21:25.383Z,26.77
2023-05-17T12:22:35.204Z,26.84
2023-05-17T12:23:48.850Z,26.78
2023-05-17T12:27:30.966Z,26.87
2023-05-17T12:30:16.669Z,26.71
2023-05-17T12:32:51.427Z,26.73
2023-05-17T12:35:17.687Z,26.56
2023-05-17T12:38:03.926Z,27.11
2023-05-17T12:40:32.131Z,27.16
2023-05-17T12:43:05.680Z,27.19
2023-05-17T12:45:30.174Z,27.49
2023-05-17T12:47:55.018Z,27.36
2023-05-17T12:51:47.249Z,27.46
2023-05-17T12:54:15.903Z,28.45
2023-05-17T12:56:44.965Z,28.85
2023-05-17T12:59:14.012Z,29.05
2023-05-17T13:01:48.382Z,28.72
2023-05-17T13:02:57.565Z,28.85
2023-05-17T13:05:22.542Z,28.92
2023-05-17T13:08:24.218Z,29.23
2023-05-17T13:10:51.161Z,29.37
2023-05-17T13:13:20.255Z,29.48
2023-05-17T13:14:45.635Z,29.33
2023-05-17T13:17:14.551Z,29.00
2023-05-17T13:19:41.862Z,28.94
2023-05-17T13:22:06.230Z,29.08
2023-05-17T13:24:37.003Z,28.89
2023-05-17T13:25:45.674Z,28.90
2023-05-17T13:28:09.876Z,28.84
2023-05-17T13:29:25.623Z,28.77
2023-05-17T13:30:31.097Z,28.36
2023-05-17T13:32:58.497Z,28.47
2023-05-17T13:35:22.540Z,28.26
2023-05-17T13:36:32.751Z,28.13
2023-05-17T13:37:42.430Z,27.99
2023-05-17T13:40:07.681Z,28.03
2023-05-17T13:42:32.088Z,28.20
2023-05-17T13:44:56.902Z,28.43
2023-05-17T13:47:21.051Z,28.35
2023-05-17T13:50:06.207Z,28.19
2023-05-17T13:52:33.554Z,28.28
2023-05-17T13:53:44.143Z,28.19
2023-05-17T13:54:54.008Z,28.04
2023-05-17T13:56:02.991Z,27.98
2023-05-17T13:57:13.973Z,27.77
2023-05-17T13:58:23.520Z,27.72
2023-05-17T14:00:47.261Z,27.86
2023-05-17T14:03:13.881Z,28.10
2023-05-17T14:05:39.068Z,28.04
2023-05-17T14:06:49.842Z,27.64
2023-05-17T14:07:59.764Z,27.71
2023-05-17T14:09:10.262Z,27.76
2023-05-17T14:11:35.463Z,27.40
2023-05-17T14:14:00.550Z,27.54
2023-05-17T14:16:28.002Z,27.73
2023-05-17T14:17:37.619Z,27.57
2023-05-17T14:20:08.407Z,27.05
2023-05-17T14:21:17.495Z,26.87
2023-05-17T14:23:41.561Z,26.44
2023-05-17T14:26:06.886Z,26.75
2023-05-17T14:27:23.783Z,26.97
2023-05-17T14:29:50.634Z,27.12
2023-05-17T14:32:15.359Z,25.97
2023-05-17T14:33:30.763Z,26.13
2023-05-17T14:34:40.298Z,25.96
2023-05-17T14:35:50.050Z,25.89
2023-05-17T14:36:58.784Z,26.12
2023-05-17T14:39:24.807Z,26.45
2023-05-17T14:40:35.648Z,26.63
2023-05-17T14:41:45.663Z,26.67
2023-05-17T14:44:11.257Z,26.05
2023-05-17T14:46:36.398Z,25.47
2023-05-17T14:49:02.228Z,25.49
2023-05-17T14:50:11.450Z,25.42
2023-05-17T14:51:21.279Z,25.46
2023-05-17T14:52:30.961Z,25.54
2023-05-17T14:54:58.786Z,25.79
2023-05-17T14:57:22.943Z,25.69
2023-05-17T14:59:52.551Z,25.60
2023-05-17T15:01:05.633Z,25.71
2023-05-17T15:03:28.432Z,25.65
2023-05-17T15:04:38.789Z,25.62
2023-05-17T15:07:13.517Z,25.02
2023-05-17T15:08:22.884Z,25.11
2023-05-17T15:10:49.723Z,25.42
2023-05-17T15:13:13.307Z,25.57
2023-05-17T15:15:39.861Z,25.20
2023-05-17T15:18:13.912Z,25.45
2023-05-17T15:20:41.521Z,25.57
2023-05-17T15:23:07.188Z,25.58
2023-05-17T15:25:33.091Z,25.34
2023-05-17T15:27:58.894Z,25.70
2023-05-17T15:30:26.353Z,25.44
2023-05-17T15:32:50.985Z,25.12
2023-05-17T15:35:15.220Z,24.87
2023-05-17T15:36:23.987Z,24.79
2023-05-17T15:37:34.003Z,24.75
2023-05-17T15:40:10.674Z,24.99
2023-05-17T15:42:37.310Z,25.12
2023-05-17T15:43:47.392Z,25.16
2023-05-17T15:44:56.754Z,25.45
2023-05-17T15:47:23.898Z,25.29
2023-05-17T15:49:49.407Z,25.43
2023-05-17T15:52:13.324Z,25.39
2023-05-17T15:54:37.665Z,25.54
2023-05-17T15:57:05.474Z,25.52
2023-05-17T15:59:29.347Z,25.44
2023-05-17T16:01:53.094Z,25.51
2023-05-17T16:03:02.791Z,25.51
2023-05-17T16:04:13.945Z,25.64
2023-05-17T16:06:39.020Z,25.87
2023-05-17T16:09:06.381Z,25.85
2023-05-17T16:11:30.762Z,26.05
2023-05-17T16:13:55.121Z,26.12
2023-05-17T16:15:04.777Z,26.18
2023-05-17T16:17:29.883Z,26.10
2023-05-17T16:19:55.740Z,26.23
2023-05-17T16:21:07.668Z,26.38
2023-05-17T16:23:32.258Z,26.75
2023-05-17T16:24:43.891Z,26.85
2023-05-17T16:27:09.056Z,27.18
2023-05-17T16:29:37.596Z,27.43
2023-05-17T16:32:21.312Z,27.40
2023-05-17T16:34:45.050Z,27.42
2023-05-17T16:37:10.557Z,27.76
2023-05-17T16:39:35.686Z,27.50
2023-05-17T16:40:47.200Z,27.48
2023-05-17T16:41:56.408Z,27.41
2023-05-17T16:44:22.750Z,27.12
2023-05-17T16:46:46.536Z,27.01
2023-05-17T16:49:10.655Z,26.97
2023-05-17T16:51:35.978Z,27.00
2023-05-17T16:54:02.194Z,27.11
2023-05-17T16:55:12.336Z,27.17
2023-05-17T16:57:36.718Z,26.96
2023-05-17T16:58:45.371Z,27.01
2023-05-17T17:01:11.352Z,27.03
2023-05-17T17:02:20.878Z,27.08
2023-05-17T17:03:30.535Z,27.16
2023-05-17T17:05:54.071Z,27.32
2023-05-17T17:08:19.476Z,27.42
2023-05-17T17:09:28.973Z,27.51
2023-05-17T17:12:24.008Z,28.40
2023-05-17T17:14:43.566Z,29.29
2023-05-17T17:17:08.846Z,29.24
2023-05-17T17:19:36.121Z,29.28
2023-05-17T17:22:03.687Z,29.90
2023-05-17T17:24:27.549Z,30.04
2023-05-17T17:26:51.804Z,29.82
2023-05-17T17:29:15.986Z,30.02
2023-05-17T17:30:25.962Z,30.08
2023-05-17T17:32:51.899Z,30.85
2023-05-17T17:34:02.204Z,30.58
2023-05-17T17:35:11.153Z,30.43
2023-05-17T17:36:20.815Z,30.07
2023-05-17T17:38:44.619Z,30.08
2023-05-17T17:41:11.735Z,30.21
2023-05-17T17:42:20.612Z,30.15
2023-05-17T17:44:44.616Z,30.42
2023-05-17T17:47:09.036Z,30.63
2023-05-17T17:49:36.090Z,30.68
2023-05-17T17:52:00.465Z,31.08
2023-05-17T17:54:26.373Z,31.29
2023-05-17T17:56:51.256Z,31.18
2023-05-17T17:59:15.730Z,31.55
2023-05-17T18:01:39.687Z,31.74
2023-05-17T18:04:04.882Z,31.76
2023-05-17T18:06:29.246Z,31.73
2023-05-17T18:08:54.473Z,31.86
2023-05-17T18:11:21.111Z,31.93
2023-05-17T18:13:45.991Z,31.92
2023-05-17T18:16:11.061Z,31.94
2023-05-17T18:18:37.519Z,31.87
2023-05-17T18:21:03.837Z,32.25
2023-05-17T18:23:32.055Z,32.25
2023-05-17T18:25:56.167Z,32.55
2023-05-17T18:28:37.598Z,32.47
2023-05-17T18:30:51.263Z,32.38
2023-05-17T18:33:17.086Z,32.24
2023-05-17T18:34:26.261Z,32.46
2023-05-17T18:36:51.072Z,32.23
2023-05-17T18:39:16.231Z,32.47
2023-05-17T18:41:42.257Z,32.56
2023-05-17T18:44:08.891Z,32.61
2023-05-17T18:46:33.999Z,32.62
2023-05-17T18:48:59.285Z,32.82
2023-05-17T18:51:25.794Z,32.92
2023-05-17T18:55:06.005Z,32.96
2023-05-17T18:57:32.400Z,32.73
2023-05-17T18:59:57.319Z,32.83
2023-05-17T19:02:21.136Z,32.73
2023-05-17T19:04:45.638Z,32.71
2023-05-17T19:07:10.770Z,32.72
2023-05-17T19:08:20.227Z,32.69
2023-05-17T19:09:30.205Z,32.75
2023-05-17T19:10:40.036Z,32.75
2023-05-17T19:11:50.238Z,32.65
2023-05-17T19:14:14.666Z,32.64
2023-05-17T19:15:23.528Z,32.68
2023-05-17T19:17:50.247Z,32.86
2023-05-17T19:19:00.787Z,32.80
2023-05-17T19:21:25.760Z,32.77
2023-05-17T19:23:51.273Z,32.80
2023-05-17T19:26:17.425Z,32.75
2023-05-17T19:27:27.080Z,32.70
2023-05-17T19:29:51.547Z,32.86
2023-05-17T19:32:15.474Z,33.05
2023-05-17T19:34:40.672Z,33.29
2023-05-17T19:37:11.370Z,33.50
2023-05-17T19:39:36.952Z,33.79
2023-05-17T19:42:03.099Z,33.88
2023-05-17T19:43:12.573Z,33.97
2023-05-17T19:44:21.433Z,33.93
2023-05-17T19:46:45.755Z,34.29
2023-05-17T19:47:56.171Z,34.47
2023-05-17T19:50:20.180Z,34.93
2023-05-17T19:51:29.263Z,34.94
2023-05-17T19:53:55.828Z,34.98
2023-05-17T19:56:23.571Z,35.11
2023-05-17T19:58:47.341Z,35.32
2023-05-17T19:59:56.009Z,35.69
2023-05-17T20:02:20.131Z,35.66
2023-05-17T20:04:46.523Z,35.60
2023-05-17T20:07:10.569Z,35.71
2023-05-17T20:09:37.796Z,35.67
2023-05-17T20:12:02.142Z,35.53
2023-05-17T20:14:27.544Z,35.49
2023-05-17T20:16:52.836Z,35.51
2023-05-17T20:19:16.479Z,35.65
2023-05-17T20:21:41.696Z,35.74
2023-05-17T20:24:07.387Z,35.77
2023-05-17T20:26:35.007Z,35.89
2023-05-17T20:29:07.840Z,36.10
2023-05-17T20:31:36.049Z,36.28
2023-05-17T20:33:59.540Z,36.36
2023-05-17T20:36:25.495Z,36.44
2023-05-17T20:37:35.314Z,36.42
2023-05-17T20:39:59.766Z,36.62
2023-05-17T20:42:28.203Z,36.72
2023-05-17T20:44:53.956Z,36.77
2023-05-17T20:47:21.992Z,36.88
2023-05-17T20:49:51.983Z,36.95
2023-05-17T20:51:02.003Z,36.99
2023-05-17T20:53:25.561Z,37.06
2023-05-17T20:55:49.775Z,37.22
2023-05-17T20:57:00.008Z,37.14
2023-05-17T20:59:22.016Z,37.17
2023-05-17T21:01:46.335Z,37.19
2023-05-17T21:02:57.145Z,37.24
2023-05-17T21:04:07.455Z,37.28
2023-05-17T21:05:16.345Z,37.35
2023-05-17T21:07:42.436Z,37.39
2023-05-17T21:10:09.535Z,37.40
2023-05-17T21:12:36.870Z,37.45
2023-05-17T21:13:46.612Z,37.40
2023-05-17T21:15:14.424Z,37.52
2023-05-17T21:16:07.964Z,37.48
2023-05-17T21:18:31.793Z,37.61
2023-05-17T21:19:40.428Z,37.54
2023-05-17T21:22:06.370Z,37.58
2023-05-17T21:24:32.507Z,37.63
2023-05-17T21:26:57.432Z,37.68
2023-05-17T21:29:23.125Z,37.75
2023-05-17T21:30:33.024Z,37.72
2023-05-17T21:32:58.659Z,37.76
2023-05-17T21:35:23.774Z,37.78
2023-05-17T21:37:48.157Z,37.85
2023-05-17T21:40:12.126Z,37.88
2023-05-17T21:42:38.290Z,37.89
2023-05-17T21:45:06.506Z,37.93
2023-05-17T21:47:30.773Z,37.94
2023-05-17T21:49:55.646Z,38.01
2023-05-17T21:52:20.438Z,37.99
2023-05-17T21:54:45.471Z,37.99
2023-05-17T21:57:10.808Z,38.01
2023-05-17T21:59:37.373Z,38.03
2023-05-17T22:02:03.583Z,38.09
2023-05-17T22:03:13.624Z,38.05
2023-05-17T22:04:22.955Z,38.15
2023-05-17T22:06:55.949Z,38.17
2023-05-17T22:09:20.353Z,38.21
2023-05-17T22:11:46.964Z,38.28
2023-05-17T22:14:13.403Z,38.28
2023-05-17T22:16:39.591Z,38.35
2023-05-17T22:17:53.065Z,38.50
2023-05-17T22:20:36.969Z,38.53
2023-05-17T22:21:46.599Z,38.47
2023-05-17T22:24:20.426Z,38.53
2023-05-17T22:25:40.070Z,38.56
2023-05-17T22:28:03.969Z,38.60
2023-05-17T22:30:27.645Z,38.60
2023-05-17T22:32:55.637Z,38.75
2023-05-17T22:34:05.629Z,38.75
2023-05-17T22:36:31.348Z,38.71
2023-05-17T22:37:42.404Z,38.68
2023-05-17T22:40:10.427Z,38.65
2023-05-17T22:42:34.023Z,38.62
2023-05-17T22:43:42.937Z,38.59
2023-05-17T22:44:52.483Z,38.66
2023-05-17T22:47:16.480Z,38.67
2023-05-17T22:48:26.640Z,38.67
2023-05-17T22:50:52.613Z,38.67
2023-05-17T22:52:07.180Z,38.72
2023-05-17T22:53:17.703Z,38.79
2023-05-17T22:56:01.980Z,38.73
2023-05-17T22:57:12.339Z,38.70
2023-05-17T22:58:23.699Z,38.67
2023-05-17T22:59:32.885Z,38.68
2023-05-17T23:01:57.802Z,38.64
2023-05-17T23:03:08.055Z,38.71
2023-05-17T23:04:18.437Z,38.71
2023-05-17T23:05:31.571Z,38.71
2023-05-17T23:07:56.002Z,38.80
2023-05-17T23:09:06.676Z,38.86
2023-05-17T23:11:32.399Z,39.00
2023-05-17T23:13:56.628Z,39.10
2023-05-17T23:16:25.497Z,39.29
2023-05-17T23:18:52.564Z,39.83
2023-05-17T23:20:13.441Z,39.94
2023-05-17T23:22:39.374Z,39.93
2023-05-17T23:25:09.733Z,39.65
2023-05-17T23:26:19.356Z,39.64
2023-05-17T23:27:30.140Z,39.71
2023-05-17T23:29:55.070Z,40.25
2023-05-17T23:32:23.067Z,40.34
2023-05-17T23:33:31.863Z,39.81
2023-05-17T23:34:43.387Z,39.70
2023-05-17T23:35:54.974Z,39.67
2023-05-17T23:37:04.474Z,39.78
2023-05-17T23:39:32.224Z,39.40
2023-05-17T23:40:41.972Z,39.37
2023-05-17T23:41:53.012Z,39.33
2023-05-17T23:44:19.665Z,39.33
2023-05-17T23:46:46.222Z,39.11
2023-05-17T23:49:14.191Z,39.00
2023-05-17T23:51:39.556Z,39.09
2023-05-17T23:52:50.435Z,39.12
2023-05-17T23:55:16.065Z,39.10
2023-05-17T23:57:43.120Z,39.22
